Time;durP1;ratioP1;P1;durP2;ratioP2;P2;SDS_P1;SDS_P2;PMS_P1;PMS_P2;Temp;Humidity;BMP_temperature;BMP_pressure;BME280_temperature;BME280_humidity;BME280_pressure;Samples;Min_cycle;Max_cycle;Signal;HPM_P1;HPM_P2
2023/06/15 00:01:28;;;;;;;7.80;4.20;;;;;;;;;;4988742;28;20193;-64
2023/06/15 00:03:55;;;;;;;6.90;4.57;;;;;;;;;;5000726;28;20233;-65
2023/06/15 00:06:22;;;;;;;5.83;3.97;;;;;;;;;;5008067;28;20196;-65
2023/06/15 00:09:06;;;;;;;8.87;4.00;;;;;;;;;;4994204;28;20171;-65
2023/06/15 00:11:32;;;;;;;8.10;4.37;;;;;;;;;;4991668;28;20212;-64
2023/06/15 00:14:17;;;;;;;6.87;4.20;;;;;;;;;;5008157;28;20267;-65
2023/06/15 00:16:45;;;;;;;7.77;4.40;;;;;;;;;;4996397;28;20189;-64
2023/06/15 00:19:12;;;;;;;7.90;4.17;;;;;;;;;;5002977;28;20223;-63
2023/06/15 00:21:42;;;;;;;8.13;4.80;;;;;;;;;;4999989;28;20282;-64
2023/06/15 00:24:09;;;;;;;9.63;4.43;;;;;;;;;;4990018;28;20212;-64
2023/06/15 00:26:36;;;;;;;11.37;5.00;;;;;;;;;;5002039;28;20189;-64
2023/06/15 00:29:03;;;;;;;10.37;4.43;;;;;;;;;;4988912;28;20199;-65
2023/06/15 00:31:30;;;;;;;8.97;4.80;;;;;;;;;;4993041;28;20231;-65
2023/06/15 00:33:56;;;;;;;8.13;4.23;;;;;;;;;;4987073;28;20209;-63
2023/06/15 00:36:23;;;;;;;6.37;3.90;;;;;;;;;;4990733;28;20701;-65
2023/06/15 00:38:50;;;;;;;7.97;4.27;;;;;;;;;;5004690;28;20258;-65
2023/06/15 00:41:41;;;;;;;9.03;4.07;;;;;;;;;;4983099;28;20172;-64
2023/06/15 00:44:08;;;;;;;8.23;3.90;;;;;;;;;;5006932;28;20196;-66
2023/06/15 00:46:35;;;;;;;6.53;4.20;;;;;;;;;;5007858;28;20192;-65
2023/06/15 00:49:03;;;;;;;6.70;3.77;;;;;;;;;;4980258;28;20217;-64
2023/06/15 00:51:30;;;;;;;5.33;3.60;;;;;;;;;;4993909;28;20228;-66
2023/06/15 00:53:57;;;;;;;5.47;3.47;;;;;;;;;;4986774;28;20280;-64
2023/06/15 00:56:29;;;;;;;7.47;3.77;;;;;;;;;;4976802;28;20268;-63
2023/06/15 00:58:56;;;;;;;6.77;3.60;;;;;;;;;;5000499;28;20212;-64
2023/06/15 01:01:25;;;;;;;5.37;3.70;;;;;;;;;;5006839;28;20303;-65
2023/06/15 01:03:54;;;;;;;5.10;3.40;;;;;;;;;;5007359;28;20236;-64
2023/06/15 01:06:24;;;;;;;5.63;3.53;;;;;;;;;;4990127;28;20219;-63
2023/06/15 01:08:57;;;;;;;6.03;3.67;;;;;;;;;;4991106;28;20204;-63
2023/06/15 01:11:24;;;;;;;6.73;3.80;;;;;;;;;;5007721;28;20279;-63
2023/06/15 01:13:53;;;;;;;4.60;3.60;;;;;;;;;;4972479;28;20283;-63
2023/06/15 01:16:32;;;;;;;8.97;3.57;;;;;;;;;;4989623;28;20201;-66
2023/06/15 01:18:59;;;;;;;8.23;3.70;;;;;;;;;;5007138;28;20216;-65
2023/06/15 01:21:26;;;;;;;5.57;3.57;;;;;;;;;;4986781;28;20556;-64
2023/06/15 01:24:02;;;;;;;4.97;3.20;;;;;;;;;;4971411;28;20208;-64
2023/06/15 01:26:30;;;;;;;8.27;3.60;;;;;;;;;;4974449;28;20207;-64
2023/06/15 01:28:56;;;;;;;5.80;3.90;;;;;;;;;;5007143;28;20227;-64
2023/06/15 01:31:26;;;;;;;7.23;3.53;;;;;;;;;;4992934;28;20200;-65
2023/06/15 01:33:53;;;;;;;6.40;3.37;;;;;;;;;;4966523;28;20255;-64
2023/06/15 01:36:20;;;;;;;5.37;3.47;;;;;;;;;;4989956;28;20711;-64
2023/06/15 01:38:50;;;;;;;7.83;3.80;;;;;;;;;;5005445;28;20212;-65
2023/06/15 01:41:17;;;;;;;5.63;3.50;;;;;;;;;;5007880;28;20215;-64
2023/06/15 02:16:01;;;;;;;12.57;4.07;;;;;;;;;;4784152;28;20293;-65
2023/06/15 02:18:30;;;;;;;6.57;3.93;;;;;;;;;;4973451;28;20211;-64
2023/06/15 02:20:57;;;;;;;7.00;3.83;;;;;;;;;;4998381;28;20697;-64
2023/06/15 02:23:24;;;;;;;5.33;4.07;;;;;;;;;;5000157;28;20228;-64
2023/06/15 02:25:51;;;;;;;7.30;3.77;;;;;;;;;;4996968;28;20207;-65
2023/06/15 02:28:18;;;;;;;7.40;4.47;;;;;;;;;;5008096;28;20192;-64
2023/06/15 02:30:44;;;;;;;7.13;3.70;;;;;;;;;;5008602;28;20192;-64
2023/06/15 02:33:31;;;;;;;9.77;4.20;;;;;;;;;;4992965;28;20186;-64
2023/06/15 02:35:57;;;;;;;6.63;4.27;;;;;;;;;;4992359;28;20188;-64
2023/06/15 02:38:25;;;;;;;4.73;3.53;;;;;;;;;;4993256;28;20188;-66
2023/06/15 02:40:52;;;;;;;9.10;5.00;;;;;;;;;;5000013;28;20192;-64
2023/06/15 02:43:21;;;;;;;7.73;4.50;;;;;;;;;;4978556;28;20538;-64
2023/06/15 02:45:49;;;;;;;8.00;4.97;;;;;;;;;;4975000;28;20200;-64
2023/06/15 02:48:17;;;;;;;7.77;4.60;;;;;;;;;;4980963;28;20208;-64
2023/06/15 02:50:44;;;;;;;10.37;5.43;;;;;;;;;;4991882;28;20287;-64
2023/06/15 02:53:20;;;;;;;6.80;4.57;;;;;;;;;;4986850;28;20192;-64
2023/06/15 02:55:51;;;;;;;8.07;4.57;;;;;;;;;;4976829;28;20196;-64
2023/06/15 02:58:20;;;;;;;10.80;4.97;;;;;;;;;;4992943;28;20196;-65
2023/06/15 03:01:02;;;;;;;6.57;4.47;;;;;;;;;;4990638;28;20211;-65
2023/06/15 03:03:40;;;;;;;8.00;4.70;;;;;;;;;;4993523;28;20196;-63
2023/06/15 03:06:08;;;;;;;7.80;4.37;;;;;;;;;;4987584;28;20667;-65
2023/06/15 03:08:38;;;;;;;7.00;4.43;;;;;;;;;;4996041;28;20686;-66
2023/06/15 03:11:16;;;;;;;5.53;4.60;;;;;;;;;;4992133;28;20196;-65
2023/06/15 03:14:00;;;;;;;6.27;4.50;;;;;;;;;;4992427;28;20188;-65
2023/06/15 03:16:39;;;;;;;8.77;4.67;;;;;;;;;;4997843;28;20771;-66
2023/06/15 03:19:07;;;;;;;6.20;4.60;;;;;;;;;;4989588;28;20714;-66
2023/06/15 03:21:34;;;;;;;7.30;4.47;;;;;;;;;;4965755;28;20229;-66
2023/06/15 03:24:03;;;;;;;5.73;4.53;;;;;;;;;;4953467;28;20260;-65
2023/06/15 03:26:48;;;;;;;7.07;4.00;;;;;;;;;;4984636;28;20271;-67
2023/06/15 03:29:15;;;;;;;8.33;4.77;;;;;;;;;;4971789;28;20240;-65
2023/06/15 03:31:43;;;;;;;6.37;4.53;;;;;;;;;;4958644;28;20212;-65
2023/06/15 03:34:10;;;;;;;10.77;4.60;;;;;;;;;;4955819;28;20677;-64
2023/06/15 03:36:37;;;;;;;9.53;4.73;;;;;;;;;;4977698;28;20275;-64
2023/06/15 03:39:04;;;;;;;7.83;4.67;;;;;;;;;;4989771;28;20251;-64
2023/06/15 03:41:31;;;;;;;7.73;4.57;;;;;;;;;;4986245;28;20204;-65
2023/06/15 03:44:00;;;;;;;7.40;4.50;;;;;;;;;;4954365;28;20197;-65
2023/06/15 03:46:27;;;;;;;6.90;4.67;;;;;;;;;;4970566;28;20251;-64
2023/06/15 03:48:55;;;;;;;5.97;4.63;;;;;;;;;;4971504;28;20676;-64
2023/06/15 03:51:22;;;;;;;7.43;4.70;;;;;;;;;;4971102;28;20552;-65
2023/06/15 03:54:06;;;;;;;6.60;4.50;;;;;;;;;;4972020;28;20188;-65
2023/06/15 03:56:32;;;;;;;8.33;4.33;;;;;;;;;;4963562;28;20283;-65
2023/06/15 03:58:59;;;;;;;5.50;4.40;;;;;;;;;;4985763;28;20213;-64
2023/06/15 04:01:27;;;;;;;7.57;4.60;;;;;;;;;;4971323;28;20283;-65
2023/06/15 04:03:54;;;;;;;6.43;4.43;;;;;;;;;;4954701;28;20568;-65
2023/06/15 04:06:21;;;;;;;6.43;4.43;;;;;;;;;;4976037;28;20283;-64
2023/06/15 04:08:49;;;;;;;9.80;4.70;;;;;;;;;;4968677;28;20209;-64
2023/06/15 04:11:16;;;;;;;6.50;4.43;;;;;;;;;;4964719;28;20203;-64
2023/06/15 04:13:43;;;;;;;5.23;4.60;;;;;;;;;;4986616;28;20218;-65
2023/06/15 04:16:10;;;;;;;6.27;4.77;;;;;;;;;;4978897;28;20224;-64
2023/06/15 04:18:38;;;;;;;6.20;4.40;;;;;;;;;;5005914;28;20298;-65
2023/06/15 04:21:06;;;;;;;6.13;4.37;;;;;;;;;;4989148;28;20220;-65
2023/06/15 04:23:33;;;;;;;8.93;4.37;;;;;;;;;;4971820;28;20672;-64
2023/06/15 04:26:03;;;;;;;6.63;4.97;;;;;;;;;;4980755;28;20250;-64
2023/06/15 04:28:31;;;;;;;8.30;5.07;;;;;;;;;;4991080;28;20200;-64
2023/06/15 04:31:08;;;;;;;5.40;4.20;;;;;;;;;;4990074;28;20188;-65
2023/06/15 04:33:58;;;;;;;7.30;4.77;;;;;;;;;;4990437;28;20264;-64
2023/06/15 04:36:27;;;;;;;6.67;4.67;;;;;;;;;;4996538;28;20212;-65
2023/06/15 04:38:57;;;;;;;9.33;4.40;;;;;;;;;;4999002;28;20196;-64
2023/06/15 04:41:27;;;;;;;5.43;4.43;;;;;;;;;;4980832;28;20200;-65
2023/06/15 04:43:59;;;;;;;8.20;4.50;;;;;;;;;;4990005;28;20191;-64
2023/06/15 04:46:27;;;;;;;9.53;4.60;;;;;;;;;;4993806;28;20258;-65
2023/06/15 04:48:56;;;;;;;8.13;4.80;;;;;;;;;;5000708;28;20199;-65
2023/06/15 04:51:23;;;;;;;6.73;4.47;;;;;;;;;;4996755;28;20193;-65
2023/06/15 04:53:50;;;;;;;8.80;4.83;;;;;;;;;;4996486;28;20184;-64
2023/06/15 04:56:17;;;;;;;6.73;4.80;;;;;;;;;;5004925;28;20271;-65
2023/06/15 04:58:45;;;;;;;7.77;4.90;;;;;;;;;;4989879;28;20560;-64
2023/06/15 05:01:13;;;;;;;9.40;5.50;;;;;;;;;;5002189;28;20739;-64
2023/06/15 05:03:40;;;;;;;7.77;5.00;;;;;;;;;;4988157;28;20196;-65
2023/06/15 05:06:07;;;;;;;8.47;5.10;;;;;;;;;;5007321;28;20230;-65
2023/06/15 05:08:35;;;;;;;7.43;5.07;;;;;;;;;;4986352;28;20291;-65
2023/06/15 05:11:04;;;;;;;9.87;5.30;;;;;;;;;;4972888;28;20219;-65
2023/06/15 05:13:31;;;;;;;9.73;5.10;;;;;;;;;;5006999;28;20291;-64
2023/06/15 05:16:01;;;;;;;10.77;5.43;;;;;;;;;;5001522;28;20935;-65
2023/06/15 05:18:46;;;;;;;11.73;6.00;;;;;;;;;;4986541;28;20176;-64
2023/06/15 05:21:13;;;;;;;12.50;6.23;;;;;;;;;;4987045;28;20223;-64
2023/06/15 05:23:40;;;;;;;12.00;7.17;;;;;;;;;;4995883;28;20223;-65
2023/06/15 05:26:08;;;;;;;10.23;6.03;;;;;;;;;;5013981;28;20544;-65
2023/06/15 05:28:54;;;;;;;9.63;6.70;;;;;;;;;;4989664;28;20299;-65
2023/06/15 05:31:21;;;;;;;9.97;6.67;;;;;;;;;;5004981;28;20196;-66
2023/06/15 05:33:48;;;;;;;9.27;6.47;;;;;;;;;;4987166;28;20200;-65
2023/06/15 05:36:19;;;;;;;9.57;6.47;;;;;;;;;;4994452;28;20295;-65
2023/06/15 05:39:06;;;;;;;11.80;5.97;;;;;;;;;;5000989;28;20192;-65
2023/06/15 05:41:35;;;;;;;8.37;6.40;;;;;;;;;;5006960;28;20530;-66
2023/06/15 05:44:02;;;;;;;11.93;6.27;;;;;;;;;;4994204;28;20254;-66
2023/06/15 05:46:29;;;;;;;10.80;6.30;;;;;;;;;;5011160;28;20169;-65
2023/06/15 05:48:57;;;;;;;11.70;5.90;;;;;;;;;;4994108;28;20204;-65
2023/06/15 05:51:24;;;;;;;10.00;6.80;;;;;;;;;;4993549;28;20208;-65
2023/06/15 05:53:51;;;;;;;9.10;5.77;;;;;;;;;;4974393;28;20197;-65
2023/06/15 05:56:19;;;;;;;9.87;6.27;;;;;;;;;;4977030;28;20656;-65
2023/06/15 05:58:47;;;;;;;11.00;6.10;;;;;;;;;;5010687;28;20275;-65
2023/06/15 06:01:13;;;;;;;13.03;6.67;;;;;;;;;;4993748;28;20779;-65
2023/06/15 06:03:40;;;;;;;7.83;5.87;;;;;;;;;;5008362;28;20218;-65
2023/06/15 06:06:07;;;;;;;9.67;6.03;;;;;;;;;;4992011;28;20555;-63
2023/06/15 06:08:34;;;;;;;12.23;6.93;;;;;;;;;;4984909;28;20568;-66
2023/06/15 06:11:05;;;;;;;10.87;6.33;;;;;;;;;;4974249;28;20216;-66
2023/06/15 06:13:55;;;;;;;9.07;6.73;;;;;;;;;;4997623;28;20204;-64
2023/06/15 06:16:22;;;;;;;8.93;6.40;;;;;;;;;;4991258;28;20635;-64
2023/06/15 06:18:49;;;;;;;11.03;6.90;;;;;;;;;;4990721;28;20193;-66
2023/06/15 06:21:17;;;;;;;10.57;7.23;;;;;;;;;;4994631;28;20234;-65
2023/06/15 06:23:44;;;;;;;10.30;7.13;;;;;;;;;;4987421;28;20204;-65
2023/06/15 06:26:11;;;;;;;11.00;6.93;;;;;;;;;;4989687;28;20736;-64
2023/06/15 06:28:38;;;;;;;10.50;6.93;;;;;;;;;;4973881;28;20196;-65
2023/06/15 06:31:05;;;;;;;11.87;7.93;;;;;;;;;;4991312;28;20691;-65
2023/06/15 06:33:49;;;;;;;9.60;7.37;;;;;;;;;;4990954;28;20232;-66
2023/06/15 06:36:15;;;;;;;7.93;6.80;;;;;;;;;;4990880;28;20243;-66
2023/06/15 06:39:00;;;;;;;12.07;7.80;;;;;;;;;;4990931;28;20161;-66
2023/06/15 06:41:28;;;;;;;12.77;7.47;;;;;;;;;;4991005;28;20693;-66
2023/06/15 06:43:55;;;;;;;12.33;7.47;;;;;;;;;;4990910;28;20196;-65
2023/06/15 06:46:22;;;;;;;11.00;7.17;;;;;;;;;;4990617;28;20660;-66
2023/06/15 06:48:49;;;;;;;12.70;7.60;;;;;;;;;;4990837;28;20196;-66
2023/06/15 06:51:16;;;;;;;12.67;8.27;;;;;;;;;;4973564;28;20189;-66
2023/06/15 06:53:43;;;;;;;15.13;8.80;;;;;;;;;;5008912;28;20250;-65
2023/06/15 06:56:10;;;;;;;17.33;9.10;;;;;;;;;;5009203;28;20655;-67
2023/06/15 06:58:37;;;;;;;16.90;8.73;;;;;;;;;;5009891;28;20196;-66
2023/06/15 07:01:04;;;;;;;15.10;8.57;;;;;;;;;;5010031;28;20231;-67
2023/06/15 07:03:31;;;;;;;13.50;8.53;;;;;;;;;;5009815;28;20197;-66
2023/06/15 07:05:58;;;;;;;14.53;8.80;;;;;;;;;;4992663;28;20991;-66
2023/06/15 07:08:25;;;;;;;12.00;7.37;;;;;;;;;;5010397;28;20205;-66
2023/06/15 07:10:51;;;;;;;10.37;6.90;;;;;;;;;;5009979;28;20199;-65
2023/06/15 07:13:18;;;;;;;10.87;7.80;;;;;;;;;;5009831;28;20279;-66
2023/06/15 07:15:45;;;;;;;7.77;6.53;;;;;;;;;;5009616;28;20279;-66
2023/06/15 07:18:14;;;;;;;9.53;6.27;;;;;;;;;;5009432;28;20187;-66
2023/06/15 07:20:58;;;;;;;9.47;6.27;;;;;;;;;;5009746;28;20207;-65
2023/06/15 07:23:25;;;;;;;7.80;6.10;;;;;;;;;;5009949;28;20188;-66
2023/06/15 07:25:56;;;;;;;10.43;7.33;;;;;;;;;;5009514;28;20176;-66
2023/06/15 07:28:25;;;;;;;8.37;6.60;;;;;;;;;;4992188;28;20192;-66
2023/06/15 07:30:52;;;;;;;10.33;6.20;;;;;;;;;;5009638;28;20587;-66
2023/06/15 07:33:18;;;;;;;9.37;6.30;;;;;;;;;;5008633;28;20191;-66
2023/06/15 07:35:45;;;;;;;9.47;6.33;;;;;;;;;;5009578;28;20207;-65
2023/06/15 07:38:30;;;;;;;7.77;5.87;;;;;;;;;;5008991;28;20195;-66
2023/06/15 07:40:57;;;;;;;9.77;6.63;;;;;;;;;;5008756;28;20243;-66
2023/06/15 07:43:24;;;;;;;7.33;6.63;;;;;;;;;;5009268;28;20196;-66
2023/06/15 07:45:51;;;;;;;10.17;6.60;;;;;;;;;;4991547;28;20710;-65
2023/06/15 07:48:17;;;;;;;8.77;6.23;;;;;;;;;;5009256;28;20202;-65
2023/06/15 07:50:46;;;;;;;7.73;5.80;;;;;;;;;;5009241;28;20227;-65
2023/06/15 07:53:13;;;;;;;7.83;5.10;;;;;;;;;;4994572;28;20652;-66
2023/06/15 07:55:39;;;;;;;7.07;4.93;;;;;;;;;;4989610;28;20272;-66
2023/06/15 07:58:06;;;;;;;7.90;4.77;;;;;;;;;;4989378;28;20304;-66
2023/06/15 08:00:33;;;;;;;8.67;4.67;;;;;;;;;;4989518;28;20204;-66
2023/06/15 08:03:00;;;;;;;5.87;4.37;;;;;;;;;;4989635;28;20197;-65
2023/06/15 08:05:27;;;;;;;7.53;4.37;;;;;;;;;;4989523;28;20197;-66
2023/06/15 08:07:55;;;;;;;7.53;4.70;;;;;;;;;;4988105;28;20296;-65
2023/06/15 08:10:22;;;;;;;7.33;4.80;;;;;;;;;;4989456;28;20228;-65
2023/06/15 08:12:49;;;;;;;6.87;4.70;;;;;;;;;;4988953;28;20185;-65
2023/06/15 08:15:16;;;;;;;6.57;4.33;;;;;;;;;;4989285;28;20181;-66
2023/06/15 08:17:43;;;;;;;6.43;4.50;;;;;;;;;;4989187;28;20241;-66
2023/06/15 08:20:27;;;;;;;6.67;4.43;;;;;;;;;;4989370;28;20205;-66
2023/06/15 08:22:54;;;;;;;6.77;4.50;;;;;;;;;;4989098;28;20193;-65
2023/06/15 08:25:21;;;;;;;8.03;5.17;;;;;;;;;;4989071;28;20208;-66
2023/06/15 08:27:48;;;;;;;6.97;4.60;;;;;;;;;;4988834;28;20267;-65
2023/06/15 08:30:15;;;;;;;5.43;4.50;;;;;;;;;;4989114;28;20683;-66
2023/06/15 08:32:59;;;;;;;6.17;4.47;;;;;;;;;;4988964;28;20180;-65
2023/06/15 08:35:26;;;;;;;6.40;3.77;;;;;;;;;;4989394;28;20192;-65
2023/06/15 08:37:53;;;;;;;7.87;4.20;;;;;;;;;;4989019;28;20200;-65
2023/06/15 08:40:20;;;;;;;9.47;4.00;;;;;;;;;;4988951;28;20208;-65
2023/06/15 08:42:47;;;;;;;6.53;3.27;;;;;;;;;;4987842;28;20195;-65
2023/06/15 08:45:33;;;;;;;6.70;3.63;;;;;;;;;;4990344;28;20595;-65
2023/06/15 08:48:00;;;;;;;7.73;3.73;;;;;;;;;;4991670;28;20268;-65
2023/06/15 08:50:44;;;;;;;5.47;3.63;;;;;;;;;;4993073;28;20177;-66
2023/06/15 08:53:14;;;;;;;5.83;3.60;;;;;;;;;;4975636;28;20282;-66
2023/06/15 08:55:58;;;;;;;8.50;3.57;;;;;;;;;;4992855;28;20176;-66
2023/06/15 08:58:25;;;;;;;5.73;3.40;;;;;;;;;;4975802;28;20246;-66
2023/06/15 09:01:09;;;;;;;5.87;3.43;;;;;;;;;;4992428;28;20208;-65
2023/06/15 09:03:36;;;;;;;5.53;3.30;;;;;;;;;;4975541;28;20197;-65
2023/06/15 09:06:22;;;;;;;4.10;3.30;;;;;;;;;;4978355;28;20172;-65
2023/06/15 09:08:50;;;;;;;8.70;3.40;;;;;;;;;;4991545;28;20711;-65
2023/06/15 09:11:18;;;;;;;6.50;3.37;;;;;;;;;;4993057;28;20611;-65
2023/06/15 09:13:45;;;;;;;4.00;3.23;;;;;;;;;;4992539;28;20208;-65
2023/06/15 09:16:12;;;;;;;4.47;3.40;;;;;;;;;;4992443;28;20263;-66
2023/06/15 09:18:43;;;;;;;8.43;3.67;;;;;;;;;;4992446;28;20248;-65
2023/06/15 09:21:13;;;;;;;7.20;3.50;;;;;;;;;;4991953;28;20219;-65
2023/06/15 09:23:41;;;;;;;5.80;3.33;;;;;;;;;;4992480;28;20223;-65
2023/06/15 09:26:09;;;;;;;4.37;3.20;;;;;;;;;;4975117;28;20228;-65
2023/06/15 09:28:42;;;;;;;8.47;3.50;;;;;;;;;;4991163;28;20271;-65
2023/06/15 09:31:10;;;;;;;6.50;3.23;;;;;;;;;;4991990;28;20192;-65
2023/06/15 09:33:37;;;;;;;6.10;3.33;;;;;;;;;;4991296;28;20223;-65
2023/06/15 09:36:04;;;;;;;6.73;3.47;;;;;;;;;;4992100;28;20664;-65
2023/06/15 09:38:32;;;;;;;6.67;3.20;;;;;;;;;;4974864;28;20193;-65
2023/06/15 09:41:05;;;;;;;3.87;3.00;;;;;;;;;;4974538;28;20219;-65
2023/06/15 09:43:35;;;;;;;7.10;3.30;;;;;;;;;;4991839;28;20207;-65
2023/06/15 09:46:02;;;;;;;6.53;3.27;;;;;;;;;;4992091;28;20692;-65
2023/06/15 09:48:30;;;;;;;4.53;3.30;;;;;;;;;;4990704;28;20197;-65
2023/06/15 09:51:00;;;;;;;9.17;3.67;;;;;;;;;;4992011;28;20189;-65
2023/06/15 09:53:28;;;;;;;4.70;2.80;;;;;;;;;;4991986;28;20244;-65
2023/06/15 09:55:55;;;;;;;6.20;3.07;;;;;;;;;;4973639;28;20205;-65
2023/06/15 09:58:25;;;;;;;3.27;2.70;;;;;;;;;;4992038;28;20227;-65
2023/06/15 10:00:57;;;;;;;5.20;3.10;;;;;;;;;;4991619;28;20639;-65
2023/06/15 10:03:25;;;;;;;6.77;2.87;;;;;;;;;;4992002;28;20212;-64
2023/06/15 10:05:56;;;;;;;5.10;2.93;;;;;;;;;;4991355;28;20744;-65
2023/06/15 10:08:26;;;;;;;5.10;2.63;;;;;;;;;;4975163;28;20652;-65
2023/06/15 10:10:56;;;;;;;4.80;2.80;;;;;;;;;;4991652;28;20207;-65
2023/06/15 10:13:26;;;;;;;5.20;3.40;;;;;;;;;;4974584;28;20251;-65
2023/06/15 10:15:55;;;;;;;3.90;2.80;;;;;;;;;;4991331;28;20623;-65
2023/06/15 10:18:23;;;;;;;6.67;2.90;;;;;;;;;;4991631;28;20189;-64
2023/06/15 10:20:52;;;;;;;3.73;3.00;;;;;;;;;;4957744;28;20264;-65
2023/06/15 10:23:22;;;;;;;6.13;3.00;;;;;;;;;;4992005;28;20193;-65
2023/06/15 10:25:58;;;;;;;4.10;2.53;;;;;;;;;;4991998;28;20193;-65
2023/06/15 10:28:25;;;;;;;4.23;2.87;;;;;;;;;;4974543;28;20196;-63
2023/06/15 10:31:30;;;;;;;9.23;3.37;;;;;;;;;;4974395;28;20196;-64
2023/06/15 10:34:03;;;;;;;6.80;3.13;;;;;;;;;;4911946;29;20211;-65
2023/06/15 10:36:30;;;;;;;6.87;3.37;;;;;;;;;;4979030;28;20577;-64
2023/06/15 10:39:01;;;;;;;4.87;3.07;;;;;;;;;;4973952;28;20213;-65
2023/06/15 10:41:28;;;;;;;4.33;2.90;;;;;;;;;;4991029;28;20212;-64
2023/06/15 10:44:01;;;;;;;7.53;3.10;;;;;;;;;;4973994;28;20197;-65
2023/06/15 10:46:33;;;;;;;4.90;2.83;;;;;;;;;;4990763;28;20575;-64
2023/06/15 10:49:06;;;;;;;4.60;2.83;;;;;;;;;;4990875;28;20193;-65
2023/06/15 10:51:35;;;;;;;4.47;2.80;;;;;;;;;;4990747;28;20197;-65
2023/06/15 10:54:02;;;;;;;7.43;3.30;;;;;;;;;;4990517;28;20209;-65
2023/06/15 10:56:29;;;;;;;5.10;3.00;;;;;;;;;;4990770;28;20193;-64
2023/06/15 10:59:13;;;;;;;4.27;2.90;;;;;;;;;;4991090;28;20177;-64
2023/06/15 11:01:41;;;;;;;5.23;3.07;;;;;;;;;;4990433;28;20208;-64
2023/06/15 11:04:28;;;;;;;6.60;3.00;;;;;;;;;;4990758;28;20173;-64
2023/06/15 11:06:55;;;;;;;4.10;3.10;;;;;;;;;;4990389;28;20276;-64
2023/06/15 11:09:40;;;;;;;5.80;3.33;;;;;;;;;;4990441;28;20183;-64
2023/06/15 11:12:27;;;;;;;4.87;3.10;;;;;;;;;;4990451;28;20204;-64
2023/06/15 11:14:55;;;;;;;4.37;3.17;;;;;;;;;;4977241;28;20592;-64
2023/06/15 11:17:22;;;;;;;5.90;2.90;;;;;;;;;;4973221;28;20224;-64
2023/06/15 11:19:49;;;;;;;6.47;3.10;;;;;;;;;;4989958;28;20234;-64
2023/06/15 11:22:25;;;;;;;3.60;2.90;;;;;;;;;;4990271;28;20212;-64
2023/06/15 11:24:55;;;;;;;4.87;3.40;;;;;;;;;;4990050;28;20199;-65
2023/06/15 11:27:40;;;;;;;6.87;3.10;;;;;;;;;;4989291;28;20173;-65
2023/06/15 11:30:08;;;;;;;4.70;3.10;;;;;;;;;;4989874;28;20189;-65
2023/06/15 11:32:35;;;;;;;3.27;2.87;;;;;;;;;;4973428;28;20210;-64
2023/06/15 11:35:03;;;;;;;5.70;3.07;;;;;;;;;;4990005;28;20193;-64
2023/06/15 11:37:30;;;;;;;8.33;2.90;;;;;;;;;;4972641;28;20212;-65
2023/06/15 11:39:57;;;;;;;7.40;3.27;;;;;;;;;;4989874;28;20671;-65
2023/06/15 11:42:24;;;;;;;4.67;3.17;;;;;;;;;;4989710;28;20229;-65
2023/06/15 11:44:51;;;;;;;7.43;3.33;;;;;;;;;;4989454;28;20271;-66
2023/06/15 11:47:18;;;;;;;3.70;2.93;;;;;;;;;;4990106;28;20661;-65
2023/06/15 11:49:45;;;;;;;5.67;3.50;;;;;;;;;;4989965;28;20185;-66
2023/06/15 11:52:12;;;;;;;5.33;3.57;;;;;;;;;;4989592;28;20196;-65
2023/06/15 11:54:39;;;;;;;5.10;3.27;;;;;;;;;;4972415;28;20283;-66
2023/06/15 11:57:20;;;;;;;7.03;3.07;;;;;;;;;;4989662;28;20224;-65
2023/06/15 11:59:47;;;;;;;5.03;3.13;;;;;;;;;;4989582;28;20192;-66
2023/06/15 12:02:15;;;;;;;3.97;3.10;;;;;;;;;;4989750;28;20224;-65
2023/06/15 12:04:42;;;;;;;7.57;3.40;;;;;;;;;;4989857;28;20189;-66
2023/06/15 12:07:26;;;;;;;5.50;3.30;;;;;;;;;;4989334;28;20186;-65
2023/06/15 12:10:03;;;;;;;6.00;3.37;;;;;;;;;;4989493;28;20192;-66
2023/06/15 12:12:30;;;;;;;6.60;3.40;;;;;;;;;;4989310;28;20215;-64
2023/06/15 12:15:00;;;;;;;8.23;3.47;;;;;;;;;;4989482;28;20185;-65
2023/06/15 12:17:33;;;;;;;8.07;3.20;;;;;;;;;;4989320;28;20225;-65
2023/06/15 12:20:09;;;;;;;4.67;2.97;;;;;;;;;;4988978;28;20216;-66
2023/06/15 12:22:41;;;;;;;4.90;3.03;;;;;;;;;;4972197;28;20216;-66
2023/06/15 12:25:11;;;;;;;6.20;3.50;;;;;;;;;;4989285;28;20607;-65
2023/06/15 12:27:49;;;;;;;6.53;3.27;;;;;;;;;;4989361;28;20173;-65
2023/06/15 12:30:20;;;;;;;7.30;3.50;;;;;;;;;;4989115;28;20722;-65
2023/06/15 12:32:48;;;;;;;5.03;3.40;;;;;;;;;;4971752;28;20968;-66
2023/06/15 12:35:27;;;;;;;7.73;2.97;;;;;;;;;;4989571;28;20193;-66
2023/06/15 12:37:55;;;;;;;4.07;3.07;;;;;;;;;;4989295;28;20189;-64
2023/06/15 12:40:22;;;;;;;9.93;3.50;;;;;;;;;;4989509;28;20664;-64
2023/06/15 12:43:02;;;;;;;5.67;2.97;;;;;;;;;;4995565;28;20215;-65
2023/06/15 12:45:29;;;;;;;6.33;3.40;;;;;;;;;;5010610;28;20194;-65
2023/06/15 12:47:56;;;;;;;5.93;3.37;;;;;;;;;;4989511;28;20288;-66
2023/06/15 12:50:24;;;;;;;3.67;3.30;;;;;;;;;;4995643;28;20192;-65
2023/06/15 12:53:08;;;;;;;8.00;3.17;;;;;;;;;;4999050;28;20281;-66
2023/06/15 12:55:35;;;;;;;6.20;3.30;;;;;;;;;;5001856;28;20663;-66
2023/06/15 12:58:02;;;;;;;5.03;3.00;;;;;;;;;;5009011;28;20258;-66
2023/06/15 13:00:29;;;;;;;5.40;3.37;;;;;;;;;;5007899;28;20200;-66
2023/06/15 13:02:57;;;;;;;6.17;3.50;;;;;;;;;;4973087;28;20906;-66
2023/06/15 13:05:24;;;;;;;5.53;3.83;;;;;;;;;;4990982;28;20223;-66
2023/06/15 13:07:51;;;;;;;5.63;3.60;;;;;;;;;;4989972;28;20276;-67
2023/06/15 13:10:18;;;;;;;5.30;3.60;;;;;;;;;;4990448;28;20224;-66
2023/06/15 13:12:46;;;;;;;9.63;3.87;;;;;;;;;;4990031;28;20239;-66
2023/06/15 13:15:13;;;;;;;5.97;3.80;;;;;;;;;;4990317;28;20217;-66
2023/06/15 13:17:40;;;;;;;6.80;4.00;;;;;;;;;;5004153;28;20224;-66
2023/06/15 13:20:08;;;;;;;6.83;3.40;;;;;;;;;;4990804;28;20224;-66
2023/06/15 13:22:34;;;;;;;8.07;3.33;;;;;;;;;;4990137;28;20256;-66
2023/06/15 13:25:03;;;;;;;6.57;3.60;;;;;;;;;;4989878;28;20201;-66
2023/06/15 13:27:31;;;;;;;8.83;4.20;;;;;;;;;;4989964;28;20292;-67
2023/06/15 13:29:58;;;;;;;5.77;3.40;;;;;;;;;;4991547;28;20700;-65
2023/06/15 13:32:25;;;;;;;4.37;3.33;;;;;;;;;;5009978;28;20196;-66
2023/06/15 13:34:52;;;;;;;5.30;3.70;;;;;;;;;;5003458;28;20228;-66
2023/06/15 13:37:19;;;;;;;4.33;3.70;;;;;;;;;;4990383;28;20197;-65
2023/06/15 13:39:46;;;;;;;6.83;4.20;;;;;;;;;;4993520;28;20224;-66
2023/06/15 13:42:13;;;;;;;6.33;3.60;;;;;;;;;;4993845;28;20213;-65
2023/06/15 13:44:40;;;;;;;4.93;3.90;;;;;;;;;;5001397;28;20195;-65
2023/06/15 13:47:14;;;;;;;6.70;3.63;;;;;;;;;;5013839;28;20212;-65
2023/06/15 13:49:41;;;;;;;6.97;3.40;;;;;;;;;;4996014;28;20188;-65
2023/06/15 13:52:09;;;;;;;4.37;3.20;;;;;;;;;;5004522;28;20189;-65
2023/06/15 13:54:36;;;;;;;6.43;3.40;;;;;;;;;;4993730;28;20229;-65
2023/06/15 13:57:03;;;;;;;6.17;3.57;;;;;;;;;;5006957;28;20246;-65
2023/06/15 13:59:30;;;;;;;5.60;3.70;;;;;;;;;;4993149;28;20193;-65
2023/06/15 14:01:57;;;;;;;4.33;3.57;;;;;;;;;;4991474;28;20208;-65
2023/06/15 14:04:24;;;;;;;5.50;3.63;;;;;;;;;;4975749;28;20192;-66
2023/06/15 14:06:51;;;;;;;6.50;3.43;;;;;;;;;;5001595;28;20199;-65
2023/06/15 14:09:18;;;;;;;5.13;3.63;;;;;;;;;;4999362;28;20189;-66
2023/06/15 14:11:44;;;;;;;8.30;4.03;;;;;;;;;;4993229;28;20263;-64
2023/06/15 14:14:13;;;;;;;5.77;3.77;;;;;;;;;;4993095;28;20200;-65
2023/06/15 14:16:40;;;;;;;6.70;3.37;;;;;;;;;;4992591;28;20229;-65
2023/06/15 14:19:07;;;;;;;5.27;3.50;;;;;;;;;;4993639;28;20247;-64
2023/06/15 14:21:34;;;;;;;5.73;3.70;;;;;;;;;;4991752;28;20615;-65
2023/06/15 14:24:00;;;;;;;4.27;3.23;;;;;;;;;;4991519;28;20320;-64
2023/06/15 14:26:28;;;;;;;4.67;3.53;;;;;;;;;;4991290;28;20212;-64
2023/06/15 14:28:54;;;;;;;4.47;3.60;;;;;;;;;;4991299;28;20197;-65
2023/06/15 14:31:21;;;;;;;8.93;3.73;;;;;;;;;;4991305;28;20271;-65
2023/06/15 14:34:06;;;;;;;5.63;3.47;;;;;;;;;;4973889;28;20174;-65
2023/06/15 14:36:32;;;;;;;5.20;3.50;;;;;;;;;;4990845;28;20263;-64
2023/06/15 14:39:17;;;;;;;5.73;3.30;;;;;;;;;;4991227;28;20868;-65
2023/06/15 14:41:44;;;;;;;6.13;3.23;;;;;;;;;;4990931;28;20278;-65
2023/06/15 14:44:12;;;;;;;5.20;2.70;;;;;;;;;;4996881;28;20606;-65
2023/06/15 14:46:41;;;;;;;5.20;3.40;;;;;;;;;;4993755;28;20200;-64
2023/06/15 14:49:09;;;;;;;6.90;3.37;;;;;;;;;;4990772;28;20584;-64
2023/06/15 14:51:36;;;;;;;6.80;2.90;;;;;;;;;;4992037;28;20283;-65
2023/06/15 14:54:04;;;;;;;5.67;3.40;;;;;;;;;;4992893;28;20208;-65
2023/06/15 14:56:31;;;;;;;6.77;3.23;;;;;;;;;;4990888;28;20188;-65
2023/06/15 14:58:59;;;;;;;6.23;3.30;;;;;;;;;;4991391;28;20197;-66
2023/06/15 15:01:26;;;;;;;5.53;3.40;;;;;;;;;;4991404;28;20192;-65
2023/06/15 15:03:53;;;;;;;5.27;3.23;;;;;;;;;;4990185;28;20228;-65
2023/06/15 15:06:21;;;;;;;6.47;3.43;;;;;;;;;;4968428;28;20196;-66
2023/06/15 15:09:14;;;;;;;5.50;2.97;;;;;;;;;;4999393;28;20249;-66
2023/06/15 15:11:41;;;;;;;5.97;3.13;;;;;;;;;;4995292;28;20275;-65
2023/06/15 15:14:08;;;;;;;5.37;3.47;;;;;;;;;;5003132;28;20190;-66
2023/06/15 15:16:36;;;;;;;6.10;3.73;;;;;;;;;;5002569;28;20260;-65
2023/06/15 15:19:04;;;;;;;6.50;3.50;;;;;;;;;;4994337;28;20320;-65
2023/06/15 15:21:31;;;;;;;8.70;3.50;;;;;;;;;;5004036;28;20197;-65
2023/06/15 15:23:59;;;;;;;8.30;4.07;;;;;;;;;;4993299;28;20243;-65
2023/06/15 15:26:46;;;;;;;4.50;3.30;;;;;;;;;;4998153;28;20204;-65
2023/06/15 15:29:16;;;;;;;5.70;4.00;;;;;;;;;;4995659;28;20197;-66